Time;durP1;ratioP1;P1;durP2;ratioP2;P2;SDS_P1;SDS_P2;PMS_P1;PMS_P2;Temp;Humidity;BMP_temperature;BMP_pressure;BME280_temperature;BME280_humidity;BME280_pressure;Samples;Min_cycle;Max_cycle;Signal;HPM_P1;HPM_P2
2022/07/04 00:00:02;;;;;;;3.20;1.08;;;22.80;84.90;;;;;;5114677;28;20027;-64
2022/07/04 00:02:27;;;;;;;3.80;1.30;;;22.80;85.00;;;;;;5114456;28;20045;-64
2022/07/04 00:04:53;;;;;;;3.28;1.20;;;22.70;85.20;;;;;;5113377;28;20433;-64
2022/07/04 00:07:19;;;;;;;3.83;1.30;;;22.70;85.10;;;;;;5112910;28;20028;-63
2022/07/04 00:09:45;;;;;;;3.80;1.45;;;22.60;84.90;;;;;;5114785;28;20027;-63
2022/07/04 00:12:11;;;;;;;2.78;1.30;;;22.70;84.80;;;;;;5114923;28;20177;-63
2022/07/04 00:14:37;;;;;;;7.53;1.20;;;22.60;84.60;;;;;;5114708;28;20519;-63
2022/07/04 00:17:03;;;;;;;;;;;22.60;84.70;;;;;;5115749;28;20118;-64
2022/07/04 00:19:28;;;;;;;7.18;1.98;;;22.60;84.60;;;;;;5114189;28;19904;-63
2022/07/04 00:21:54;;;;;;;5.90;1.00;;;22.60;84.60;;;;;;5114127;28;20023;-63
2022/07/04 00:24:20;;;;;;;2.75;0.88;;;22.50;84.70;;;;;;5113091;28;20069;-63
2022/07/04 00:26:45;;;;;;;;;;;22.40;84.80;;;;;;5113754;28;20543;-64
2022/07/04 00:29:11;;;;;;;3.42;1.00;;;22.30;85.30;;;;;;5113958;28;20275;-64
2022/07/04 00:31:36;;;;;;;2.53;1.00;;;22.40;85.50;;;;;;5114199;28;20069;-64
2022/07/04 00:34:02;;;;;;;1.95;1.33;;;22.30;85.80;;;;;;5113863;28;20035;-64
2022/07/04 00:36:27;;;;;;;1.10;1.00;;;22.30;85.40;;;;;;5112591;28;20027;-63
2022/07/04 00:38:53;;;;;;;3.05;1.13;;;22.20;85.50;;;;;;5113852;28;20032;-64
2022/07/04 00:41:19;;;;;;;3.72;1.20;;;22.10;85.80;;;;;;5115072;28;20038;-64
2022/07/04 00:44:09;;;;;;;2.47;1.00;;;22.00;85.80;;;;;;5113852;28;20437;-64
2022/07/04 00:46:34;;;;;;;3.15;0.82;;;22.00;86.20;;;;;;5112663;28;20024;-63
2022/07/04 00:49:02;;;;;;;3.45;1.10;;;21.90;86.30;;;;;;5114074;28;20365;-63
2022/07/04 00:51:28;;;;;;;2.58;1.13;;;22.00;86.40;;;;;;5114554;28;20032;-64
2022/07/04 00:53:54;;;;;;;2.28;0.90;;;21.90;86.50;;;;;;5112444;28;20028;-64
2022/07/04 00:56:21;;;;;;;2.78;1.10;;;22.00;86.70;;;;;;5113993;28;20043;-64
2022/07/04 00:58:47;;;;;;;3.85;1.02;;;22.00;86.60;;;;;;5113778;28;20036;-63
2022/07/04 01:01:13;;;;;;;2.90;1.20;;;22.00;86.70;;;;;;5112271;28;20434;-64
2022/07/04 01:03:38;;;;;;;2.50;1.20;;;22.00;87.00;;;;;;5112365;28;20028;-64
2022/07/04 01:06:08;;;;;;;2.15;1.13;;;22.00;87.10;;;;;;5113999;28;20536;-63
2022/07/04 01:08:35;;;;;;;3.15;1.10;;;22.00;87.30;;;;;;5113528;28;20020;-64
2022/07/04 01:11:01;;;;;;;8.20;1.75;;;22.00;87.60;;;;;;5113759;28;20076;-64
2022/07/04 01:13:26;;;;;;;1.65;1.00;;;21.90;87.60;;;;;;5112168;28;20024;-64
2022/07/04 01:15:52;;;;;;;2.80;1.45;;;22.00;88.00;;;;;;5112178;28;20057;-63
2022/07/04 01:18:17;;;;;;;4.80;1.63;;;21.90;87.90;;;;;;5116879;28;20387;-63
2022/07/04 01:20:44;;;;;;;5.30;1.20;;;21.90;88.30;;;;;;5117502;28;20038;-63
2022/07/04 01:23:09;;;;;;;3.78;1.23;;;22.00;88.20;;;;;;5117633;28;20030;-64
2022/07/04 01:25:35;;;;;;;3.70;1.00;;;22.00;88.30;;;;;;5117693;28;20020;-63
2022/07/04 01:28:01;;;;;;;1.90;1.13;;;21.90;88.10;;;;;;5118369;28;20027;-63
2022/07/04 01:30:28;;;;;;;4.97;0.80;;;21.90;88.40;;;;;;5118078;28;20414;-64
2022/07/04 01:32:54;;;;;;;3.33;1.08;;;21.80;88.50;;;;;;5117368;28;20024;-64
2022/07/04 01:35:20;;;;;;;4.65;1.10;;;21.80;88.60;;;;;;5116188;28;20487;-64
2022/07/04 01:37:46;;;;;;;;;;;21.70;88.90;;;;;;5116457;28;20048;-64
2022/07/04 01:40:12;;;;;;;1.95;0.77;;;21.60;89.10;;;;;;5117511;28;19904;-63
2022/07/04 01:42:39;;;;;;;7.03;1.27;;;21.50;89.10;;;;;;5117175;28;20419;-63
2022/07/04 01:45:05;;;;;;;4.30;1.00;;;21.40;89.50;;;;;;5117049;28;20038;-63
2022/07/04 01:47:31;;;;;;;2.85;1.30;;;21.30;89.70;;;;;;5115820;28;20391;-65
2022/07/04 01:49:56;;;;;;;2.58;1.00;;;21.40;90.00;;;;;;5117338;28;20016;-63
2022/07/04 01:52:22;;;;;;;2.85;1.00;;;21.50;89.80;;;;;;5117055;28;20031;-65
2022/07/04 01:54:48;;;;;;;2.80;1.27;;;21.40;89.80;;;;;;5116979;28;20423;-66
2022/07/04 01:57:13;;;;;;;2.65;1.08;;;21.30;90.00;;;;;;5117263;28;20549;-64
2022/07/04 02:02:24;;;;;;;3.78;1.20;;;21.30;90.10;;;;;;5116793;28;20511;-65
2022/07/04 02:04:49;;;;;;;2.60;1.00;;;21.20;90.10;;;;;;5116822;28;20028;-65
2022/07/04 02:07:15;;;;;;;3.92;1.42;;;21.30;90.00;;;;;;5117852;28;20039;-65
2022/07/04 02:09:41;;;;;;;4.07;0.90;;;21.30;89.80;;;;;;5115312;28;20056;-65
2022/07/04 02:14:51;;;;;;;3.17;1.08;;;21.40;89.30;;;;;;5116589;28;20084;-64
2022/07/04 02:17:17;;;;;;;3.45;1.20;;;21.50;88.90;;;;;;5117331;28;20413;-64
2022/07/04 02:19:42;;;;;;;0.80;0.80;;;21.40;89.40;;;;;;5116564;28;20067;-64
2022/07/04 02:22:08;;;;;;;2.00;0.98;;;21.30;89.40;;;;;;5116470;28;20413;-64
2022/07/04 02:24:33;;;;;;;2.22;0.80;;;21.30;89.60;;;;;;5114955;28;20019;-64
2022/07/04 02:26:59;;;;;;;2.13;1.08;;;21.30;89.70;;;;;;5115509;28;20023;-64
2022/07/04 02:29:25;;;;;;;3.83;1.20;;;21.20;89.90;;;;;;5115824;28;20077;-63
2022/07/04 02:31:50;;;;;;;4.50;1.10;;;21.10;90.00;;;;;;5117094;28;20468;-65
2022/07/04 02:34:16;;;;;;;1.70;0.90;;;21.10;90.10;;;;;;5123152;22;20052;-66
2022/07/04 02:36:41;;;;;;;2.35;0.70;;;21.10;89.70;;;;;;5094162;28;20054;-66
2022/07/04 02:39:07;;;;;;;2.53;0.90;;;21.20;90.20;;;;;;5094115;28;20024;-66
2022/07/04 02:41:34;;;;;;;1.92;0.90;;;21.20;89.40;;;;;;5095356;28;20032;-66
2022/07/04 02:44:00;;;;;;;1.95;1.20;;;21.20;89.40;;;;;;5095939;28;20418;-66
2022/07/04 02:46:25;;;;;;;5.75;1.20;;;21.20;89.20;;;;;;5096594;28;20032;-66
2022/07/04 02:48:51;;;;;;;2.88;0.80;;;21.10;88.70;;;;;;5096667;28;20031;-66
2022/07/04 02:51:16;;;;;;;2.85;1.35;;;21.00;88.60;;;;;;5096713;28;20024;-66
2022/07/04 02:53:42;;;;;;;1.83;0.95;;;21.00;89.10;;;;;;5095189;28;20058;-66
2022/07/04 02:56:08;;;;;;;2.58;0.90;;;21.00;89.10;;;;;;5095159;28;20472;-66
2022/07/04 02:58:33;;;;;;;2.55;0.70;;;20.90;89.10;;;;;;5093884;28;20073;-66
2022/07/04 03:01:00;;;;;;;1.23;0.90;;;21.00;89.20;;;;;;5094962;28;20039;-66
2022/07/04 03:03:26;;;;;;;1.20;0.60;;;21.00;88.70;;;;;;5094931;28;20071;-66
2022/07/04 03:05:52;;;;;;;2.90;1.15;;;21.00;88.80;;;;;;5095215;28;20027;-66
2022/07/04 03:08:18;;;;;;;2.33;0.98;;;20.90;88.70;;;;;;5094891;28;20040;-66
2022/07/04 03:10:44;;;;;;;;;;;20.90;88.90;;;;;;5095275;28;20069;-66
2022/07/04 03:13:09;;;;;;;1.65;0.80;;;21.00;89.00;;;;;;5094888;28;20310;-65
2022/07/04 03:15:35;;;;;;;2.65;0.70;;;21.00;88.80;;;;;;5093590;28;20024;-66
2022/07/04 03:18:00;;;;;;;2.45;0.85;;;20.90;89.00;;;;;;5093640;28;20191;-66
2022/07/04 03:20:26;;;;;;;4.07;1.10;;;21.00;89.20;;;;;;5094849;28;20028;-66
2022/07/04 03:22:54;;;;;;;1.75;0.75;;;21.00;88.70;;;;;;5094879;28;20039;-65
2022/07/04 03:25:20;;;;;;;2.78;1.02;;;21.10;88.70;;;;;;5094594;28;20452;-65
2022/07/04 03:27:46;;;;;;;;;;;21.00;88.80;;;;;;5093774;28;20472;-67
2022/07/04 03:30:12;;;;;;;2.13;0.90;;;21.00;89.00;;;;;;5094571;28;19911;-67
2022/07/04 03:32:38;;;;;;;1.80;0.90;;;20.90;89.20;;;;;;5094538;28;20036;-67
2022/07/04 03:35:03;;;;;;;1.42;0.77;;;20.90;89.30;;;;;;5094443;28;20043;-67
2022/07/04 03:37:29;;;;;;;1.20;0.73;;;20.90;89.60;;;;;;5094481;28;20476;-67
2022/07/04 03:39:54;;;;;;;1.75;1.30;;;20.80;89.70;;;;;;5094180;28;20032;-67
2022/07/04 03:42:20;;;;;;;2.08;0.88;;;20.70;89.90;;;;;;5093733;28;20028;-66
2022/07/04 03:44:46;;;;;;;6.45;1.08;;;20.90;89.90;;;;;;5094323;28;20020;-66
2022/07/04 03:47:11;;;;;;;1.90;0.80;;;20.80;89.90;;;;;;5093025;28;20027;-67
2022/07/04 03:49:37;;;;;;;4.45;1.10;;;20.80;90.00;;;;;;5094749;28;20052;-66
2022/07/04 03:52:02;;;;;;;5.38;1.20;;;20.70;90.10;;;;;;5094219;28;20024;-66
2022/07/04 03:54:29;;;;;;;1.35;0.88;;;20.70;90.20;;;;;;5093944;28;20036;-66
2022/07/04 03:56:55;;;;;;;3.78;0.88;;;20.70;90.30;;;;;;5092752;28;20411;-66
2022/07/04 03:59:20;;;;;;;2.45;1.00;;;20.70;90.20;;;;;;5094282;28;20077;-67
2022/07/04 04:01:46;;;;;;;2.72;0.93;;;20.70;90.20;;;;;;5093823;28;20024;-66
2022/07/04 04:06:55;;;;;;;2.15;0.73;;;20.80;90.40;;;;;;5094302;28;20035;-66
2022/07/04 04:09:24;;;;;;;3.42;1.20;;;20.70;90.40;;;;;;5094002;28;20024;-66
2022/07/04 04:11:50;;;;;;;2.60;0.90;;;20.60;90.60;;;;;;5092491;28;20547;-67
2022/07/04 04:14:16;;;;;;;;;;;20.50;90.90;;;;;;5092793;28;20076;-68
2022/07/04 04:16:42;;;;;;;3.65;0.90;;;20.40;91.10;;;;;;5093651;28;19904;-67
2022/07/04 04:19:08;;;;;;;2.22;1.02;;;20.40;91.30;;;;;;5094044;28;20016;-67
2022/07/04 04:21:34;;;;;;;2.20;0.90;;;20.30;91.10;;;;;;5093495;28;20060;-69
2022/07/04 04:24:00;;;;;;;3.22;0.95;;;20.30;91.00;;;;;;5094190;28;20077;-66
2022/07/04 04:26:26;;;;;;;3.38;0.80;;;20.20;91.50;;;;;;5092390;28;20028;-66
2022/07/04 04:28:51;;;;;;;5.28;0.90;;;20.20;91.40;;;;;;5092548;28;20391;-67
2022/07/04 04:31:17;;;;;;;1.75;0.90;;;20.00;91.90;;;;;;5093829;28;20060;-68
2022/07/04 04:33:42;;;;;;;2.15;0.95;;;20.00;92.10;;;;;;5092103;28;20047;-67
2022/07/04 04:36:08;;;;;;;4.57;0.90;;;20.00;92.10;;;;;;5092372;28;20600;-67
2022/07/04 04:38:34;;;;;;;5.50;1.30;;;20.10;92.00;;;;;;5092243;28;20024;-67
2022/07/04 04:40:59;;;;;;;3.55;1.30;;;20.10;91.90;;;;;;5093394;28;20498;-67
2022/07/04 04:43:25;;;;;;;2.63;0.90;;;20.10;92.00;;;;;;5092140;28;20020;-67
2022/07/04 04:45:50;;;;;;;2.35;0.93;;;20.10;91.90;;;;;;5091980;28;20017;-67
2022/07/04 04:48:16;;;;;;;3.85;1.60;;;20.20;91.80;;;;;;5093528;28;20024;-69
2022/07/04 04:50:41;;;;;;;1.90;1.20;;;20.20;91.80;;;;;;5093044;28;20034;-66
2022/07/04 04:53:07;;;;;;;2.50;1.10;;;20.10;91.60;;;;;;5094621;28;20034;-68
2022/07/04 04:55:32;;;;;;;2.03;0.98;;;20.20;92.00;;;;;;5092725;28;20066;-69
2022/07/04 04:57:58;;;;;;;4.05;1.23;;;20.30;91.50;;;;;;5094575;28;20135;-69
2022/07/04 05:00:23;;;;;;;2.20;1.05;;;20.20;91.40;;;;;;5093572;28;20021;-69
2022/07/04 05:02:49;;;;;;;6.28;1.30;;;20.10;91.80;;;;;;5091918;28;20040;-68
2022/07/04 05:05:15;;;;;;;2.88;1.10;;;20.20;92.00;;;;;;5093186;28;20024;-68
2022/07/04 05:07:40;;;;;;;1.45;0.90;;;20.30;91.80;;;;;;5093131;28;20122;-67
2022/07/04 05:10:07;;;;;;;3.60;1.55;;;20.30;91.80;;;;;;5094462;28;20024;-68
2022/07/04 05:12:32;;;;;;;2.53;0.90;;;20.40;91.70;;;;;;5094496;28;20567;-68
2022/07/04 05:14:58;;;;;;;3.30;1.67;;;20.30;91.60;;;;;;5093888;28;20122;-67
2022/07/04 05:17:24;;;;;;;4.28;1.13;;;20.30;91.60;;;;;;5094202;28;20039;-67
2022/07/04 05:19:50;;;;;;;2.17;0.95;;;20.20;91.70;;;;;;5093522;28;20020;-67
2022/07/04 05:22:16;;;;;;;3.85;0.90;;;20.10;91.80;;;;;;5093320;28;20073;-68
2022/07/04 05:24:42;;;;;;;3.20;0.90;;;20.10;92.00;;;;;;5093712;28;20097;-67
2022/07/04 05:27:08;;;;;;;2.22;0.90;;;20.30;92.10;;;;;;5092755;28;20449;-68
2022/07/04 05:29:33;;;;;;;2.05;1.30;;;20.80;91.70;;;;;;5094911;28;20070;-68
2022/07/04 05:31:59;;;;;;;5.05;1.20;;;20.90;91.20;;;;;;5093728;28;20040;-67
2022/07/04 05:34:24;;;;;;;3.50;1.13;;;21.10;90.90;;;;;;5093286;28;20040;-68
2022/07/04 05:36:51;;;;;;;4.93;1.00;;;21.10;91.30;;;;;;5091676;28;20473;-68
2022/07/04 05:39:16;;;;;;;;;;;21.30;90.60;;;;;;5092029;28;20031;-67
2022/07/04 05:41:42;;;;;;;2.88;1.15;;;21.30;90.30;;;;;;5092796;28;19908;-68
2022/07/04 05:44:08;;;;;;;3.78;1.08;;;21.30;90.40;;;;;;5093136;28;20113;-67
2022/07/04 05:46:34;;;;;;;2.63;1.23;;;21.30;90.30;;;;;;5091448;28;20025;-69
2022/07/04 05:48:59;;;;;;;3.33;1.20;;;21.30;90.30;;;;;;5091441;28;20463;-68
2022/07/04 05:51:25;;;;;;;2.13;1.50;;;21.40;90.50;;;;;;5092872;28;20135;-66
2022/07/04 05:53:50;;;;;;;8.43;1.40;;;21.30;90.20;;;;;;5092627;28;20016;-67
2022/07/04 05:56:16;;;;;;;6.68;1.08;;;21.20;90.50;;;;;;5093025;28;20028;-68
2022/07/04 05:58:42;;;;;;;5.85;1.90;;;21.30;90.50;;;;;;5092899;28;20464;-67
2022/07/04 06:01:08;;;;;;;3.35;1.10;;;21.20;90.30;;;;;;5092948;28;20032;-67
2022/07/04 06:03:36;;;;;;;13.75;1.60;;;21.10;90.60;;;;;;5091505;28;20020;-68
2022/07/04 06:06:05;;;;;;;8.93;1.50;;;21.00;90.80;;;;;;5096514;28;20020;-68
2022/07/04 06:08:31;;;;;;;2.70;1.27;;;20.90;90.90;;;;;;5095232;28;20020;-68
2022/07/04 06:10:56;;;;;;;3.70;1.23;;;21.00;91.10;;;;;;5096295;28;20024;-68
2022/07/04 06:13:22;;;;;;;4.28;1.00;;;21.10;91.00;;;;;;5096003;28;20036;-67
2022/07/04 06:15:48;;;;;;;3.17;1.35;;;21.10;91.20;;;;;;5094512;28;20081;-67
2022/07/04 06:18:14;;;;;;;2.70;1.33;;;21.20;91.10;;;;;;5095781;28;20028;-67
2022/07/04 06:20:40;;;;;;;4.53;2.00;;;21.20;90.90;;;;;;5095724;28;20502;-67
2022/07/04 06:23:07;;;;;;;2.45;1.30;;;21.30;91.00;;;;;;5095630;28;20020;-67
2022/07/04 06:25:33;;;;;;;3.08;1.30;;;21.20;91.00;;;;;;5096224;28;20048;-67
2022/07/04 06:27:59;;;;;;;;;;;21.10;91.00;;;;;;5095944;28;20487;-69
2022/07/04 06:30:25;;;;;;;4.43;1.58;;;20.90;91.20;;;;;;5095427;28;19949;-68
2022/07/04 06:32:53;;;;;;;6.10;1.60;;;20.90;91.20;;;;;;5095931;28;20136;-69
2022/07/04 06:38:06;;;;;;;3.00;1.20;;;21.00;91.10;;;;;;5095851;28;20491;-68
2022/07/04 06:40:31;;;;;;;4.35;1.20;;;21.00;91.20;;;;;;5094207;28;20032;-68
2022/07/04 06:42:57;;;;;;;4.10;1.35;;;21.10;91.10;;;;;;5095318;28;20081;-68
2022/07/04 06:45:23;;;;;;;3.13;1.20;;;21.10;91.10;;;;;;5095361;28;20472;-68
2022/07/04 06:47:48;;;;;;;4.78;1.40;;;21.20;91.30;;;;;;5095462;28;20029;-69
2022/07/04 06:50:14;;;;;;;2.65;1.08;;;21.30;91.10;;;;;;5095474;28;20413;-68
2022/07/04 06:52:40;;;;;;;6.47;1.25;;;21.50;91.40;;;;;;5095290;28;20039;-68
2022/07/04 06:55:06;;;;;;;3.92;1.10;;;21.60;91.10;;;;;;5095121;28;20062;-68
2022/07/04 06:57:32;;;;;;;2.70;1.25;;;21.60;91.00;;;;;;5094359;28;20024;-68
2022/07/04 06:59:58;;;;;;;4.55;1.50;;;21.60;91.10;;;;;;5093820;28;20027;-69
2022/07/04 07:02:24;;;;;;;1.15;0.98;;;21.70;91.10;;;;;;5095244;28;20024;-69
2022/07/04 07:04:49;;;;;;;4.13;1.02;;;21.70;91.10;;;;;;5093617;28;20066;-68
2022/07/04 07:07:15;;;;;;;2.88;1.23;;;21.80;91.00;;;;;;5094908;28;20140;-69
2022/07/04 07:09:40;;;;;;;4.68;1.48;;;21.90;91.00;;;;;;5094895;28;20073;-68
2022/07/04 07:12:06;;;;;;;3.38;1.00;;;22.00;90.80;;;;;;5095441;28;20115;-68
2022/07/04 07:14:31;;;;;;;1.92;1.13;;;21.90;90.80;;;;;;5093140;28;20020;-68
2022/07/04 07:16:58;;;;;;;4.75;2.25;;;22.00;90.60;;;;;;5093339;28;20032;-68
2022/07/04 07:19:23;;;;;;;;;;;22.00;90.90;;;;;;5095111;28;20031;-68
2022/07/04 07:21:49;;;;;;;5.65;1.33;;;22.00;90.90;;;;;;5094522;28;19912;-68
2022/07/04 07:24:14;;;;;;;3.47;1.40;;;22.00;90.60;;;;;;5094360;28;20111;-68
2022/07/04 07:26:40;;;;;;;2.28;1.40;;;22.10;90.70;;;;;;5094421;28;20065;-68
2022/07/04 07:29:05;;;;;;;9.40;5.22;;;22.10;90.60;;;;;;5094425;28;20028;-68
2022/07/04 07:31:31;;;;;;;4.53;1.33;;;22.10;90.70;;;;;;5094658;28;20051;-68
2022/07/04 07:33:57;;;;;;;;;;;22.20;90.80;;;;;;5094501;28;20040;-68
2022/07/04 07:36:22;;;;;;;2.72;1.25;;;22.30;90.40;;;;;;5094101;28;20299;-68
2022/07/04 07:38:48;;;;;;;3.95;1.20;;;22.30;90.50;;;;;;5094183;28;20107;-69
2022/07/04 07:41:13;;;;;;;5.13;1.33;;;22.40;90.40;;;;;;5092538;28;20028;-68
2022/07/04 07:43:39;;;;;;;3.58;1.42;;;22.40;90.40;;;;;;5092716;28;20035;-68
2022/07/04 07:46:06;;;;;;;;;;;22.50;90.60;;;;;;5093166;28;20104;-69
2022/07/04 07:48:32;;;;;;;7.20;1.58;;;22.70;90.60;;;;;;5093947;28;20019;-69
2022/07/04 07:50:57;;;;;;;1.88;1.13;;;23.70;89.40;;;;;;5093832;28;20052;-69
2022/07/04 07:53:23;;;;;;;;;;;24.70;86.30;;;;;;5094666;28;20028;-69
2022/07/04 07:55:48;;;;;;;4.32;1.08;;;25.30;84.50;;;;;;5092473;28;19939;-69
2022/07/04 07:58:14;;;;;;;4.13;1.30;;;25.50;83.20;;;;;;5093636;28;20080;-69
2022/07/04 08:00:39;;;;;;;2.42;1.20;;;24.80;83.10;;;;;;5092766;28;20024;-68
2022/07/04 08:05:49;;;;;;;4.38;1.30;;;24.60;84.90;;;;;;5093772;28;20463;-69
2022/07/04 08:08:15;;;;;;;;;;;24.60;85.10;;;;;;5093365;28;20124;-69
2022/07/04 08:10:40;;;;;;;5.00;1.55;;;24.90;84.40;;;;;;5093851;28;19946;-69
2022/07/04 08:13:06;;;;;;;;;;;25.40;83.30;;;;;;5092824;28;20028;-68
2022/07/04 08:15:32;;;;;;;4.15;1.23;;;26.70;79.80;;;;;;5093628;28;20409;-69
2022/07/04 08:17:58;;;;;;;3.83;1.30;;;28.60;77.20;;;;;;5092632;28;20047;-69
2022/07/04 08:20:24;;;;;;;2.58;1.10;;;30.70;72.70;;;;;;5092733;28;20452;-69
2022/07/04 08:22:49;;;;;;;2.95;1.10;;;32.50;68.50;;;;;;5093708;28;20040;-69
2022/07/04 08:25:16;;;;;;;2.75;1.00;;;34.20;65.60;;;;;;5094212;28;20020;-69
2022/07/04 08:27:42;;;;;;;2.17;0.90;;;35.00;62.80;;;;;;5091840;28;20369;-69
2022/07/04 08:30:08;;;;;;;3.15;1.00;;;35.60;61.30;;;;;;5093731;28;20077;-68
2022/07/04 08:32:34;;;;;;;2.00;1.02;;;36.10;59.70;;;;;;5092132;28;20035;-68
2022/07/04 08:35:01;;;;;;;3.45;1.10;;;36.30;58.50;;;;;;5094080;28;20040;-69
2022/07/04 08:37:28;;;;;;;2.03;0.90;;;36.40;58.30;;;;;;5092055;28;20032;-68
2022/07/04 08:39:54;;;;;;;3.42;1.42;;;36.80;57.10;;;;;;5093793;28;20053;-69
2022/07/04 08:42:21;;;;;;;3.15;1.30;;;37.00;56.70;;;;;;5093351;28;20468;-69
2022/07/04 08:44:52;;;;;;;1.70;1.30;;;37.90;55.90;;;;;;5091893;28;20385;-69
2022/07/04 08:47:19;;;;;;;3.88;1.10;;;37.80;55.10;;;;;;5093315;28;20016;-69
2022/07/04 08:50:02;;;;;;;6.72;1.50;;;36.90;55.70;;;;;;5092886;28;20020;-69
2022/07/04 08:52:53;;;;;;;4.75;1.35;;;37.40;55.40;;;;;;5093150;28;20024;-69
2022/07/04 09:00:49;;;;;;;3.35;1.85;;;37.20;55.10;;;;;;5093407;28;20051;-70
2022/07/04 09:03:15;;;;;;;3.17;1.60;;;37.60;54.70;;;;;;5092892;28;20039;-69
2022/07/04 09:05:40;;;;;;;4.18;1.25;;;37.80;54.30;;;;;;5091429;28;20025;-69
2022/07/04 09:08:06;;;;;;;3.40;1.40;;;37.10;54.40;;;;;;5092688;28;20362;-69
2022/07/04 09:10:32;;;;;;;1.38;1.10;;;35.20;55.80;;;;;;5091286;28;20420;-69
2022/07/04 09:13:00;;;;;;;2.35;0.90;;;34.70;57.80;;;;;;5092506;28;20062;-69
2022/07/04 09:15:26;;;;;;;2.80;1.27;;;35.10;56.50;;;;;;5092733;28;20396;-69
2022/07/04 09:17:52;;;;;;;2.80;1.05;;;35.70;55.80;;;;;;5092804;28;20387;-69
2022/07/04 09:20:20;;;;;;;4.32;0.90;;;36.20;55.40;;;;;;5092683;28;20022;-68
2022/07/04 09:22:47;;;;;;;5.03;1.35;;;37.10;53.90;;;;;;5092606;28;20441;-69
2022/07/04 09:25:16;;;;;;;6.90;1.65;;;37.80;53.80;;;;;;5092479;28;20365;-69
2022/07/04 09:27:44;;;;;;;2.72;1.10;;;39.20;52.20;;;;;;5092548;28;20024;-69
2022/07/04 09:30:12;;;;;;;5.00;1.95;;;39.20;52.00;;;;;;5092793;28;20024;-69
2022/07/04 09:32:41;;;;;;;1.35;1.05;;;37.70;52.60;;;;;;5091353;28;20024;-68
2022/07/04 09:35:20;;;;;;;1.77;1.20;;;37.20;54.10;;;;;;5091646;28;20368;-69
2022/07/04 09:37:47;;;;;;;6.35;1.50;;;37.50;53.20;;;;;;5092549;28;20153;-70
2022/07/04 09:40:22;;;;;;;3.83;1.42;;;38.50;52.50;;;;;;5095659;28;20055;-69
2022/07/04 09:42:48;;;;;;;3.60;1.20;;;39.40;51.70;;;;;;5096347;28;20388;-68
2022/07/04 09:45:13;;;;;;;3.88;1.42;;;38.40;51.80;;;;;;5094890;28;20123;-69
2022/07/04 09:47:40;;;;;;;3.22;1.40;;;38.10;52.00;;;;;;5096246;28;20020;-68
2022/07/04 09:50:15;;;;;;;1.92;1.30;;;38.00;52.30;;;;;;5095032;28;20025;-69
2022/07/04 09:52:54;;;;;;;2.70;1.30;;;37.50;52.60;;;;;;5096220;28;20049;-69
2022/07/04 09:55:39;;;;;;;2.25;1.10;;;37.80;52.40;;;;;;5098507;28;20108;-69
2022/07/04 09:58:07;;;;;;;1.97;1.10;;;38.10;52.10;;;;;;5096643;28;20032;-69
2022/07/04 10:00:35;;;;;;;2.22;0.90;;;38.40;51.80;;;;;;5096223;28;20265;-69
2022/07/04 10:03:21;;;;;;;2.88;1.40;;;39.30;51.10;;;;;;5096066;28;20027;-68
2022/07/04 10:05:47;;;;;;;;;;;39.10;50.80;;;;;;5094921;28;20027;-68
2022/07/04 10:08:13;;;;;;;4.85;1.20;;;39.60;50.30;;;;;;5095865;28;20309;-68
2022/07/04 10:10:44;;;;;;;3.13;1.30;;;39.20;50.60;;;;;;5094297;28;20092;-69
2022/07/04 10:13:12;;;;;;;1.55;1.08;;;38.90;50.50;;;;;;5096012;28;20024;-69
2022/07/04 10:15:40;;;;;;;5.05;1.60;;;38.90;50.70;;;;;;5095673;28;20024;-69
2022/07/04 10:18:07;;;;;;;2.60;1.10;;;38.00;51.20;;;;;;5095588;28;20047;-69
2022/07/04 10:20:34;;;;;;;4.40;1.20;;;36.90;52.30;;;;;;5095948;28;20078;-69
2022/07/04 10:23:00;;;;;;;1.90;1.20;;;36.40;52.60;;;;;;5095225;28;20028;-68
2022/07/04 10:25:26;;;;;;;1.73;1.10;;;35.50;53.40;;;;;;5095578;28;20020;-69
2022/07/04 10:27:51;;;;;;;3.13;1.30;;;36.10;53.60;;;;;;5095427;28;20012;-69
2022/07/04 10:30:22;;;;;;;5.50;1.38;;;36.70;52.90;;;;;;5093946;28;20058;-69
2022/07/04 10:32:48;;;;;;;2.45;1.50;;;36.70;52.70;;;;;;5095668;28;20031;-68
2022/07/04 10:35:15;;;;;;;2.40;1.17;;;36.80;52.50;;;;;;5095321;28;20040;-69
2022/07/04 10:38:05;;;;;;;3.58;1.05;;;36.70;52.30;;;;;;5097314;28;20024;-69
2022/07/04 10:41:02;;;;;;;4.95;1.17;;;37.50;52.20;;;;;;5095883;28;20024;-68
2022/07/04 10:43:34;;;;;;;3.92;1.42;;;38.30;51.70;;;;;;5095127;28;20373;-69
2022/07/04 10:46:02;;;;;;;2.28;1.30;;;38.80;51.20;;;;;;5094956;28;20027;-68
2022/07/04 10:48:29;;;;;;;2.50;1.35;;;38.40;51.10;;;;;;5095191;28;20046;-69
2022/07/04 10:51:04;;;;;;;7.80;1.33;;;38.20;51.20;;;;;;5094640;28;20479;-68
2022/07/04 10:53:31;;;;;;;2.15;1.30;;;37.10;52.20;;;;;;5095473;28;20468;-69
2022/07/04 10:56:15;;;;;;;2.97;1.20;;;35.80;53.30;;;;;;5094938;28;20477;-69
2022/07/04 10:58:42;;;;;;;5.57;1.20;;;36.60;53.00;;;;;;5095095;28;20492;-70
2022/07/04 11:01:18;;;;;;;2.35;1.02;;;36.20;52.60;;;;;;5094900;28;20085;-69
2022/07/04 11:03:49;;;;;;;6.07;1.15;;;36.00;53.00;;;;;;5094646;28;20024;-68
2022/07/04 11:06:32;;;;;;;1.80;1.08;;;36.10;52.60;;;;;;5094602;28;20034;-68
2022/07/04 11:09:18;;;;;;;3.92;1.27;;;35.50;52.90;;;;;;5093222;28;20020;-69
2022/07/04 11:11:58;;;;;;;4.50;1.23;;;34.50;53.90;;;;;;5094556;28;20392;-69
2022/07/04 11:14:44;;;;;;;2.60;1.00;;;34.40;54.00;;;;;;5094425;28;20024;-70
2022/07/04 11:17:15;;;;;;;2.88;1.00;;;34.10;54.60;;;;;;5093242;28;20403;-70
2022/07/04 11:19:41;;;;;;;2.80;1.08;;;33.60;55.00;;;;;;5094672;28;20028;-69
2022/07/04 11:22:09;;;;;;;6.80;1.40;;;32.60;56.30;;;;;;5094502;28;20047;-69
2022/07/04 11:24:35;;;;;;;3.95;1.08;;;31.80;57.20;;;;;;5094325;28;20016;-69
2022/07/04 11:27:01;;;;;;;1.40;1.00;;;31.00;58.10;;;;;;5094781;28;20487;-70
2022/07/04 11:29:29;;;;;;;2.10;1.20;;;30.50;58.80;;;;;;5094928;28;20381;-69
2022/07/04 11:31:54;;;;;;;4.47;1.00;;;30.10;58.80;;;;;;5094050;28;20070;-69
2022/07/04 11:34:20;;;;;;;4.45;1.20;;;29.10;60.30;;;;;;5094208;28;20032;-69
2022/07/04 11:36:49;;;;;;;5.97;1.17;;;29.10;60.60;;;;;;5094335;28;20476;-69
2022/07/04 11:39:20;;;;;;;2.40;1.13;;;29.40;61.50;;;;;;5094095;28;20028;-69
2022/07/04 11:47:32;;;;;;;;;;;29.40;60.20;;;;;;5095333;28;20345;-69
2022/07/04 11:49:59;;;;;;;1.38;0.80;;;29.50;59.90;;;;;;5093965;28;19904;-69
2022/07/04 11:52:27;;;;;;;4.55;1.20;;;29.40;59.40;;;;;;5092673;28;20024;-69
2022/07/04 11:54:53;;;;;;;2.47;1.45;;;29.20;60.70;;;;;;5094734;28;20126;-69
2022/07/04 11:57:27;;;;;;;3.08;1.25;;;29.10;60.80;;;;;;5093503;28;20020;-69
2022/07/04 12:00:04;;;;;;;5.50;1.23;;;28.80;61.50;;;;;;5095176;28;20384;-68
2022/07/04 12:02:32;;;;;;;1.85;1.33;;;28.80;61.30;;;;;;5093308;28;20055;-69
2022/07/04 12:04:59;;;;;;;3.53;1.48;;;28.70;61.20;;;;;;5092700;28;20415;-70
2022/07/04 12:07:27;;;;;;;6.40;3.63;;;28.70;61.60;;;;;;5094362;28;20019;-70
2022/07/04 12:09:54;;;;;;;2.63;1.17;;;28.60;61.10;;;;;;5093958;28;20017;-69
2022/07/04 12:12:21;;;;;;;3.40;1.50;;;28.50;61.00;;;;;;5093664;28;20041;-70
2022/07/04 12:14:57;;;;;;;5.22;1.50;;;28.50;61.90;;;;;;5093975;28;20454;-69
2022/07/04 12:17:28;;;;;;;5.25;1.10;;;28.60;61.70;;;;;;5094202;28;20024;-70
2022/07/04 12:19:56;;;;;;;2.45;0.90;;;28.50;61.50;;;;;;5093845;28;20407;-68
2022/07/04 12:22:29;;;;;;;5.72;1.45;;;28.00;62.20;;;;;;5094272;28;20144;-70
2022/07/04 12:24:55;;;;;;;1.95;1.08;;;28.00;63.20;;;;;;5092135;28;20016;-69
2022/07/04 12:27:22;;;;;;;5.50;1.35;;;28.10;62.90;;;;;;5093453;28;20016;-68
2022/07/04 12:29:49;;;;;;;4.75;1.40;;;28.10;62.70;;;;;;5093884;28;20045;-69
2022/07/04 12:32:15;;;;;;;2.03;0.93;;;27.90;63.10;;;;;;5093931;28;20100;-68
2022/07/04 12:34:41;;;;;;;2.22;1.27;;;27.70;63.40;;;;;;5093680;28;20489;-69
2022/07/04 12:37:09;;;;;;;2.35;1.25;;;27.80;63.20;;;;;;5094069;28;20196;-68
2022/07/04 12:39:40;;;;;;;5.78;1.30;;;27.80;63.80;;;;;;5092032;28;20020;-69
2022/07/04 12:42:10;;;;;;;4.20;1.30;;;27.90;63.70;;;;;;5093296;28;20099;-69
2022/07/04 12:44:36;;;;;;;1.60;1.20;;;28.00;63.20;;;;;;5093012;28;20020;-69
2022/07/04 12:47:06;;;;;;;1.98;1.10;;;28.20;63.40;;;;;;5093652;28;20024;-68
2022/07/04 12:49:32;;;;;;;2.47;1.10;;;28.20;62.40;;;;;;5093422;28;20020;-69
2022/07/04 12:52:15;;;;;;;2.10;1.00;;;28.10;63.10;;;;;;5093409;28;20055;-69
2022/07/04 12:54:42;;;;;;;1.40;1.00;;;28.00;63.30;;;;;;5094151;28;20024;-68
2022/07/04 12:57:14;;;;;;;2.42;1.17;;;28.00;62.90;;;;;;5093757;28;20435;-69
2022/07/04 12:59:40;;;;;;;5.25;1.23;;;28.00;63.10;;;;;;5093159;28;20111;-72
2022/07/04 13:02:07;;;;;;;2.40;1.02;;;27.90;63.40;;;;;;5091648;28;20020;-69
2022/07/04 13:04:33;;;;;;;2.15;0.93;;;27.90;63.90;;;;;;5092918;28;20381;-70
2022/07/04 13:07:11;;;;;;;4.32;1.08;;;28.10;63.60;;;;;;5093104;28;20020;-69
2022/07/04 13:09:36;;;;;;;2.70;1.20;;;28.10;63.10;;;;;;5091780;28;20066;-68
2022/07/04 13:14:46;;;;;;;6.43;1.30;;;28.20;63.30;;;;;;5096958;28;20495;-68
2022/07/04 13:17:11;;;;;;;2.40;0.90;;;28.30;63.00;;;;;;5097180;28;20032;-70